createdAt,value
2022-10-29T00:01:05.633Z,101873.50
2022-10-29T00:03:33.735Z,101874.84
2022-10-29T00:06:06.735Z,101874.34
2022-10-29T00:08:37.214Z,101877.94
2022-10-29T00:11:10.436Z,101879.62
2022-10-29T00:13:38.738Z,101875.47
2022-10-29T00:16:17.776Z,101870.87
2022-10-29T00:18:46.456Z,101863.19
2022-10-29T00:21:19.397Z,101868.16
2022-10-29T00:23:47.893Z,101872.91
2022-10-29T00:26:16.360Z,101871.41
2022-10-29T00:28:44.279Z,101877.72
2022-10-29T00:31:19.084Z,101875.00
2022-10-29T00:33:47.313Z,101873.84
2022-10-29T00:36:17.620Z,101873.84
2022-10-29T00:38:45.771Z,101886.91
2022-10-29T00:41:19.727Z,101882.00
2022-10-29T00:43:50.889Z,101885.72
2022-10-29T00:46:24.204Z,101885.16
2022-10-29T00:48:55.555Z,101884.69
2022-10-29T00:51:23.531Z,101883.19
2022-10-29T00:54:02.649Z,101884.81
2022-10-29T00:56:34.615Z,101884.69
2022-10-29T00:59:03.025Z,101882.59
2022-10-29T01:01:31.100Z,101882.59
2022-10-29T01:04:00.289Z,101883.41
2022-10-29T01:06:30.711Z,101875.72
2022-10-29T01:08:58.524Z,101876.63
2022-10-29T01:12:01.128Z,101873.84
2022-10-29T01:14:32.844Z,101869.50
2022-10-29T01:17:03.166Z,101870.59
2022-10-29T01:19:49.694Z,101861.00
2022-10-29T01:22:26.183Z,101860.00
2022-10-29T01:25:27.378Z,101863.97
2022-10-29T01:28:39.597Z,101858.31
2022-10-29T01:31:28.554Z,101861.28
2022-10-29T01:34:23.271Z,101857.56
2022-10-29T01:36:56.418Z,101855.12
2022-10-29T01:39:36.612Z,101856.97
2022-10-29T01:42:19.955Z,101842.09
2022-10-29T01:45:14.989Z,101839.78
2022-10-29T01:47:49.793Z,101837.50
2022-10-29T01:50:21.835Z,101827.53
2022-10-29T01:52:51.060Z,101827.72
2022-10-29T01:55:30.993Z,101829.13
2022-10-29T01:57:59.208Z,101823.41
2022-10-29T02:00:29.117Z,101828.69
2022-10-29T02:03:15.192Z,101824.09
2022-10-29T02:05:51.673Z,101827.94
2022-10-29T02:08:57.784Z,101823.53
2022-10-29T02:11:30.827Z,101829.31
2022-10-29T02:14:18.761Z,101830.28
2022-10-29T02:16:48.449Z,101830.63
2022-10-29T02:19:16.237Z,101824.81
2022-10-29T02:21:45.190Z,101823.78
2022-10-29T02:24:13.045Z,101821.75
2022-10-29T02:26:40.547Z,101817.66
2022-10-29T02:29:08.096Z,101820.47
2022-10-29T02:31:36.271Z,101809.16
2022-10-29T02:34:03.932Z,101815.53
2022-10-29T02:36:31.564Z,101807.19
2022-10-29T02:38:59.523Z,101815.91
2022-10-29T02:41:27.083Z,101813.28
2022-10-29T02:43:54.705Z,101813.56
2022-10-29T02:46:24.239Z,101813.06
2022-10-29T02:48:51.871Z,101813.75
2022-10-29T02:51:19.536Z,101813.91
2022-10-29T02:53:47.592Z,101801.59
2022-10-29T02:56:15.112Z,101801.25
2022-10-29T02:58:42.672Z,101808.75
2022-10-29T03:01:10.680Z,101812.13
2022-10-29T03:03:38.305Z,101805.69
2022-10-29T03:06:12.767Z,101803.78
2022-10-29T03:08:41.006Z,101798.47
2022-10-29T03:11:09.157Z,101795.69
2022-10-29T03:16:05.976Z,101788.59
2022-10-29T03:18:33.522Z,101795.25
2022-10-29T03:21:01.140Z,101787.19
2022-10-29T03:23:28.952Z,101790.34
2022-10-29T03:25:56.795Z,101789.94
2022-10-29T03:28:25.982Z,101790.00
2022-10-29T03:30:54.531Z,101789.50
2022-10-29T03:33:22.359Z,101789.37
2022-10-29T03:35:49.998Z,101783.19
2022-10-29T03:38:17.937Z,101788.09
2022-10-29T03:40:45.430Z,101788.56
2022-10-29T03:43:12.922Z,101782.91
2022-10-29T03:45:40.811Z,101782.16
2022-10-29T03:48:08.448Z,101779.31
2022-10-29T03:50:36.003Z,101779.75
2022-10-29T03:53:03.852Z,101775.06
2022-10-29T03:55:31.430Z,101771.66
2022-10-29T03:57:59.183Z,101774.41
2022-10-29T04:00:27.188Z,101778.34
2022-10-29T04:02:55.428Z,101778.44
2022-10-29T04:05:23.233Z,101782.81
2022-10-29T04:07:50.849Z,101783.75
2022-10-29T04:10:18.735Z,101782.97
2022-10-29T04:12:46.859Z,101781.31
2022-10-29T04:15:14.408Z,101786.66
2022-10-29T04:17:42.299Z,101785.00
2022-10-29T04:20:21.163Z,101778.87
2022-10-29T04:28:17.613Z,101788.16
2022-10-29T04:28:51.529Z,101789.91
2022-10-29T04:31:19.413Z,101788.16
2022-10-29T04:33:47.398Z,101787.66
2022-10-29T04:36:14.973Z,101783.00
2022-10-29T04:38:42.608Z,101783.63
2022-10-29T04:41:10.485Z,101791.53
2022-10-29T04:43:38.104Z,101803.81
2022-10-29T04:46:05.705Z,101797.50
2022-10-29T04:48:33.633Z,101800.09
2022-10-29T04:51:01.248Z,101801.78
2022-10-29T04:53:29.019Z,101802.28
2022-10-29T04:56:01.741Z,101798.16
2022-10-29T04:58:29.304Z,101807.66
2022-10-29T05:01:05.118Z,101794.06
2022-10-29T05:03:33.622Z,101790.50
2022-10-29T05:06:05.563Z,101797.28
2022-10-29T05:08:33.344Z,101794.59
2022-10-29T05:11:05.488Z,101800.97
2022-10-29T05:13:33.712Z,101793.91
2022-10-29T05:16:02.114Z,101791.66
2022-10-29T05:18:29.817Z,101790.59
2022-10-29T05:20:57.920Z,101791.78
2022-10-29T05:23:25.778Z,101794.16
2022-10-29T05:25:55.831Z,101790.19
2022-10-29T05:28:24.773Z,101786.97
2022-10-29T05:30:53.413Z,101793.22
2022-10-29T05:33:23.503Z,101790.75
2022-10-29T05:35:51.855Z,101792.25
2022-10-29T05:38:19.983Z,101788.03
2022-10-29T05:40:47.568Z,101789.91
2022-10-29T05:43:16.589Z,101782.31
2022-10-29T05:45:45.409Z,101791.34
2022-10-29T05:48:13.487Z,101794.69
2022-10-29T05:50:41.252Z,101789.22
2022-10-29T05:53:11.883Z,101796.31
2022-10-29T05:55:40.177Z,101792.84
2022-10-29T05:58:12.070Z,101786.59
2022-10-29T06:00:42.656Z,101787.13
2022-10-29T06:03:23.112Z,101776.91
2022-10-29T06:05:51.568Z,101779.22
2022-10-29T06:08:19.563Z,101776.41
2022-10-29T06:10:47.247Z,101778.87
2022-10-29T06:13:20.460Z,101778.44
2022-10-29T06:15:51.231Z,101777.44
2022-10-29T06:18:18.801Z,101784.88
2022-10-29T06:20:46.444Z,101792.91
2022-10-29T06:23:14.341Z,101795.84
2022-10-29T06:25:41.932Z,101797.56
2022-10-29T06:28:15.401Z,101789.37
2022-10-29T06:30:48.619Z,101798.47
2022-10-29T06:33:19.871Z,101801.81
2022-10-29T06:35:48.415Z,101809.00
2022-10-29T06:38:16.199Z,101803.09
2022-10-29T06:40:43.946Z,101806.87
2022-10-29T06:43:12.723Z,101809.94
2022-10-29T06:45:40.517Z,101807.63
2022-10-29T06:48:08.216Z,101802.72
2022-10-29T06:50:36.079Z,101808.16
2022-10-29T06:53:06.278Z,101804.56
2022-10-29T06:55:34.625Z,101811.69
2022-10-29T06:58:13.811Z,101815.34
2022-10-29T07:00:42.759Z,101811.81
2022-10-29T07:03:14.911Z,101808.72
2022-10-29T07:05:42.533Z,101814.19
2022-10-29T07:08:10.700Z,101812.63
2022-10-29T07:10:38.768Z,101818.75
2022-10-29T07:13:06.412Z,101817.78
2022-10-29T07:15:34.012Z,101830.84
2022-10-29T07:18:07.096Z,101823.78
2022-10-29T07:20:37.364Z,101817.22
2022-10-29T07:23:05.915Z,101819.91
2022-10-29T07:25:35.320Z,101829.81
2022-10-29T07:28:23.212Z,101829.22
2022-10-29T07:30:52.467Z,101827.66
2022-10-29T07:33:20.120Z,101824.09
2022-10-29T07:35:47.730Z,101828.94
2022-10-29T07:38:15.603Z,101824.03
2022-10-29T07:40:50.393Z,101826.84
2022-10-29T07:43:19.644Z,101818.81
2022-10-29T07:45:52.067Z,101820.16
2022-10-29T07:48:20.858Z,101822.81
2022-10-29T07:50:49.040Z,101815.31
2022-10-29T07:53:16.657Z,101808.44
2022-10-29T07:55:44.545Z,101806.69
2022-10-29T07:58:12.637Z,101806.16
2022-10-29T08:00:41.328Z,101817.22
2022-10-29T08:03:12.283Z,101806.50
2022-10-29T08:05:42.562Z,101816.97
2022-10-29T08:08:11.094Z,101808.56
2022-10-29T08:10:38.727Z,101808.75
2022-10-29T08:13:06.810Z,101813.66
2022-10-29T08:15:35.292Z,101815.00
2022-10-29T08:18:04.850Z,101808.75
2022-10-29T08:20:32.475Z,101809.81
2022-10-29T08:23:01.225Z,101802.91
2022-10-29T08:25:29.518Z,101818.25
2022-10-29T08:28:02.726Z,101808.66
2022-10-29T08:30:31.896Z,101816.63
2022-10-29T08:33:00.841Z,101813.91
2022-10-29T08:35:29.527Z,101810.88
2022-10-29T08:37:58.030Z,101806.66
2022-10-29T08:40:47.595Z,101791.59
2022-10-29T08:43:35.229Z,101800.94
2022-10-29T08:46:03.437Z,101804.34
2022-10-29T08:48:34.360Z,101797.84
2022-10-29T08:51:36.431Z,101801.97
2022-10-29T08:54:25.678Z,101804.19
2022-10-29T08:56:56.716Z,101806.47
2022-10-29T08:59:29.575Z,101806.13
2022-10-29T09:01:57.386Z,101795.28
2022-10-29T09:04:36.742Z,101789.87
2022-10-29T09:07:36.467Z,101792.28
2022-10-29T09:10:07.079Z,101790.88
2022-10-29T09:13:12.110Z,101796.75
2022-10-29T09:15:57.572Z,101796.50
2022-10-29T09:18:53.195Z,101795.78
2022-10-29T09:21:44.827Z,101803.84
2022-10-29T09:24:28.038Z,101799.41
2022-10-29T09:27:05.373Z,101796.28
2022-10-29T09:29:58.931Z,101796.56
2022-10-29T09:33:00.146Z,101789.16
2022-10-29T09:35:54.951Z,101789.72
2022-10-29T09:38:27.071Z,101795.94
2022-10-29T09:40:58.215Z,101786.56
2022-10-29T09:43:35.237Z,101800.97
2022-10-29T09:46:08.980Z,101795.47
2022-10-29T09:48:46.403Z,101790.03
2022-10-29T09:51:42.163Z,101795.59
2022-10-29T09:54:10.346Z,101808.88
2022-10-29T09:56:47.783Z,101795.03
2022-10-29T09:59:35.153Z,101792.03
2022-10-29T10:02:04.726Z,101785.56
2022-10-29T10:04:40.388Z,101782.41
2022-10-29T10:07:10.660Z,101769.94
2022-10-29T10:09:54.351Z,101764.09
2022-10-29T10:12:28.058Z,101760.41
2022-10-29T10:15:28.290Z,101772.22
2022-10-29T10:18:21.963Z,101769.97
2022-10-29T10:21:01.627Z,101762.84
2022-10-29T10:23:40.720Z,101762.47
2022-10-29T10:26:32.868Z,101758.38
2022-10-29T10:29:14.320Z,101758.94
2022-10-29T10:31:47.930Z,101756.81
2022-10-29T10:34:15.462Z,101758.50
2022-10-29T10:36:47.795Z,101746.16
2022-10-29T10:39:31.619Z,101746.28
2022-10-29T10:42:02.742Z,101745.37
2022-10-29T10:44:30.748Z,101729.63
2022-10-29T10:47:04.809Z,101725.63
2022-10-29T10:49:38.046Z,101720.72
2022-10-29T10:52:13.825Z,101709.50
2022-10-29T10:54:46.412Z,101717.94
2022-10-29T10:57:14.802Z,101714.47
2022-10-29T10:59:54.280Z,101711.91
2022-10-29T11:02:40.286Z,101708.91
2022-10-29T11:05:18.796Z,101708.97
2022-10-29T11:08:07.094Z,101696.59
2022-10-29T11:10:40.833Z,101697.94
2022-10-29T11:13:15.954Z,101703.56
2022-10-29T11:16:05.461Z,101700.22
2022-10-29T11:18:55.190Z,101702.13
2022-10-29T11:21:32.859Z,101703.38
2022-10-29T11:24:08.902Z,101692.59
2022-10-29T11:26:44.713Z,101690.69
2022-10-29T11:29:18.400Z,101699.34
2022-10-29T11:31:56.808Z,101700.94
2022-10-29T11:34:27.322Z,101695.84
2022-10-29T11:37:07.198Z,101702.06
2022-10-29T11:39:49.398Z,101703.19
2022-10-29T11:42:17.613Z,101709.56
2022-10-29T11:44:48.166Z,101706.72
2022-10-29T11:47:30.929Z,101711.19
2022-10-29T11:50:23.161Z,101717.69
2022-10-29T11:53:54.702Z,101721.13
2022-10-29T11:57:13.781Z,101715.91
2022-10-29T12:00:13.420Z,101710.66
2022-10-29T12:03:10.052Z,101697.00
2022-10-29T12:05:50.004Z,101700.94
2022-10-29T12:08:20.630Z,101692.06
2022-10-29T12:11:00.498Z,101689.12
2022-10-29T12:13:42.865Z,101686.03
2022-10-29T12:16:16.474Z,101688.91
2022-10-29T12:18:49.964Z,101676.22
2022-10-29T12:21:26.591Z,101678.59
2022-10-29T12:24:15.532Z,101686.03
2022-10-29T12:26:54.538Z,101687.06
2022-10-29T12:29:25.806Z,101686.53
2022-10-29T12:32:11.157Z,101685.47
2022-10-29T12:34:50.883Z,101678.34
2022-10-29T12:38:06.324Z,101671.25
2022-10-29T12:40:37.961Z,101659.72
2022-10-29T12:43:11.887Z,101661.25
2022-10-29T12:48:50.049Z,101652.81
2022-10-29T12:51:42.949Z,101649.44
2022-10-29T12:54:46.348Z,101649.44
2022-10-29T12:57:13.854Z,101644.66
2022-10-29T12:59:43.408Z,101640.69
2022-10-29T13:02:27.783Z,101635.62
2022-10-29T13:05:09.711Z,101631.28
2022-10-29T13:07:59.275Z,101630.25
2022-10-29T13:10:29.716Z,101627.63
2022-10-29T13:13:20.252Z,101634.69
2022-10-29T13:16:00.645Z,101631.28
2022-10-29T13:19:06.626Z,101627.63
2022-10-29T13:22:22.757Z,101622.88
2022-10-29T13:25:41.587Z,101626.03
2022-10-29T13:28:09.490Z,101623.94
2022-10-29T13:30:41.049Z,101634.69
2022-10-29T13:33:23.703Z,101632.34
2022-10-29T13:36:00.820Z,101634.97
2022-10-29T13:39:04.437Z,101637.34
2022-10-29T13:41:43.276Z,101626.00
2022-10-29T13:44:16.709Z,101623.91
2022-10-29T13:46:49.667Z,101621.28
2022-10-29T13:49:34.405Z,101613.16
2022-10-29T13:52:17.341Z,101615.75
2022-10-29T13:54:57.097Z,101612.38
2022-10-29T13:57:50.824Z,101608.16
2022-10-29T14:00:20.977Z,101608.69
2022-10-29T14:03:01.873Z,101609.47
2022-10-29T14:05:45.177Z,101610.00
2022-10-29T14:08:25.028Z,101608.94
2022-10-29T14:10:59.513Z,101600.00
2022-10-29T14:13:36.917Z,101592.38
2022-10-29T14:16:07.496Z,101589.22
2022-10-29T14:18:43.871Z,101585.56
2022-10-29T14:21:17.288Z,101578.69
2022-10-29T14:24:02.542Z,101579.78
2022-10-29T14:26:32.450Z,101588.72
2022-10-29T14:29:29.672Z,101583.44
2022-10-29T14:32:20.711Z,101580.84
2022-10-29T14:34:52.635Z,101569.00
2022-10-29T14:37:34.183Z,101575.84
2022-10-29T14:40:13.952Z,101581.31
2022-10-29T14:42:46.610Z,101593.44
2022-10-29T14:45:22.844Z,101583.19
2022-10-29T14:48:00.519Z,101595.53
2022-10-29T14:50:30.033Z,101584.78
2022-10-29T14:53:20.773Z,101589.50
2022-10-29T14:55:50.210Z,101582.13
2022-10-29T14:58:31.083Z,101582.69
2022-10-29T15:01:03.539Z,101581.34
2022-10-29T15:03:33.875Z,101580.81
2022-10-29T15:06:15.921Z,101586.34
2022-10-29T15:08:46.325Z,101580.81
2022-10-29T15:11:40.080Z,101578.72
2022-10-29T15:14:36.694Z,101570.56
2022-10-29T15:17:25.133Z,101575.31
2022-10-29T15:20:01.378Z,101583.19
2022-10-29T15:22:39.578Z,101586.06
2022-10-29T15:25:15.458Z,101578.19
2022-10-29T15:27:43.587Z,101582.16
2022-10-29T15:30:22.796Z,101591.84
2022-10-29T15:32:50.950Z,101581.31
2022-10-29T15:35:21.545Z,101576.09
2022-10-29T15:37:51.592Z,101581.59
2022-10-29T15:40:24.187Z,101575.06
2022-10-29T15:42:53.198Z,101580.81
2022-10-29T15:45:26.962Z,101579.50
2022-10-29T15:48:09.792Z,101570.81
2022-10-29T15:50:43.243Z,101581.09
2022-10-29T15:53:16.092Z,101576.34
2022-10-29T15:55:44.064Z,101580.56
2022-10-29T15:58:14.857Z,101574.53
2022-10-29T16:00:43.238Z,101571.34
2022-10-29T16:03:20.039Z,101573.19
2022-10-29T16:05:49.990Z,101568.47
2022-10-29T16:08:27.382Z,101572.94
2022-10-29T16:10:56.184Z,101572.41
2022-10-29T16:13:25.980Z,101572.69
2022-10-29T16:15:53.607Z,101575.56
2022-10-29T16:18:22.344Z,101576.63
2022-10-29T16:20:55.403Z,101583.44
2022-10-29T16:23:22.983Z,101580.31
2022-10-29T16:25:51.005Z,101583.44
2022-10-29T16:28:18.703Z,101582.66
2022-10-29T16:30:57.117Z,101586.34
2022-10-29T16:33:25.254Z,101579.78
2022-10-29T16:35:52.816Z,101582.91
2022-10-29T16:38:20.488Z,101571.38
2022-10-29T16:40:48.317Z,101568.75
2022-10-29T16:43:15.853Z,101566.38
2022-10-29T16:45:44.008Z,101567.69
2022-10-29T16:48:11.901Z,101560.88
2022-10-29T16:50:39.493Z,101560.31
2022-10-29T16:53:10.115Z,101553.50
2022-10-29T16:55:38.866Z,101553.25
2022-10-29T16:58:08.723Z,101551.41
2022-10-29T17:00:36.817Z,101544.81
2022-10-29T17:03:10.960Z,101552.44
2022-10-29T17:05:45.315Z,101554.03
2022-10-29T17:08:13.703Z,101553.25
2022-10-29T17:10:41.271Z,101552.44
2022-10-29T17:13:11.287Z,101554.81
2022-10-29T17:15:40.988Z,101552.91
2022-10-29T17:18:08.726Z,101552.97
2022-10-29T17:20:36.414Z,101555.59
2022-10-29T17:23:04.237Z,101555.87
2022-10-29T17:25:31.913Z,101547.94
2022-10-29T17:27:59.965Z,101544.47
2022-10-29T17:30:28.150Z,101548.72
2022-10-29T17:32:56.246Z,101555.31
2022-10-29T17:35:24.241Z,101560.31
2022-10-29T17:37:52.156Z,101554.09
2022-10-29T17:40:20.378Z,101549.28
2022-10-29T17:42:47.873Z,101545.59
2022-10-29T17:45:20.415Z,101540.88
2022-10-29T17:47:48.198Z,101546.63
2022-10-29T17:50:16.206Z,101541.41
2022-10-29T17:52:43.777Z,101546.31
2022-10-29T17:55:11.362Z,101550.47
2022-10-29T17:57:39.944Z,101554.63
2022-10-29T18:00:08.170Z,101554.50
2022-10-29T18:02:36.025Z,101553.81
2022-10-29T18:05:03.912Z,101543.16
2022-10-29T18:07:31.473Z,101541.59
2022-10-29T18:10:01.183Z,101535.47
2022-10-29T18:12:29.182Z,101531.91
2022-10-29T18:14:56.951Z,101529.06
2022-10-29T18:17:24.814Z,101536.09
2022-10-29T18:19:55.441Z,101531.81
2022-10-29T18:22:22.971Z,101535.84
2022-10-29T18:24:51.057Z,101545.59
2022-10-29T18:27:20.232Z,101541.41
2022-10-29T18:29:48.088Z,101531.94
2022-10-29T18:32:16.492Z,101545.56
2022-10-29T18:34:44.120Z,101541.38
2022-10-29T18:37:11.908Z,101532.72
2022-10-29T18:39:39.811Z,101526.69
2022-10-29T18:42:07.543Z,101515.66
2022-10-29T18:44:35.614Z,101521.97
2022-10-29T18:47:03.543Z,101523.84
2022-10-29T18:49:31.299Z,101525.66
2022-10-29T18:51:59.092Z,101523.56
2022-10-29T18:54:27.163Z,101512.00
2022-10-29T18:56:55.083Z,101509.62
2022-10-29T18:59:22.755Z,101511.47
2022-10-29T19:01:50.914Z,101517.25
2022-10-29T19:04:18.693Z,101514.09
2022-10-29T19:06:46.621Z,101517.25
2022-10-29T19:09:14.816Z,101519.09
2022-10-29T19:11:42.751Z,101515.16
2022-10-29T19:14:13.163Z,101512.50
2022-10-29T19:16:41.385Z,101510.97
2022-10-29T19:19:12.625Z,101515.41
2022-10-29T19:21:42.308Z,101513.28
2022-10-29T19:24:13.862Z,101519.06
2022-10-29T19:26:42.258Z,101517.78
2022-10-29T19:29:10.827Z,101520.41
2022-10-29T19:31:38.820Z,101521.97
2022-10-29T19:34:08.151Z,101524.34
2022-10-29T19:36:37.005Z,101530.38
2022-10-29T19:39:05.579Z,101525.91
2022-10-29T19:41:33.667Z,101516.72
2022-10-29T19:44:02.570Z,101502.75
2022-10-29T19:46:31.081Z,101505.66
2022-10-29T19:48:59.223Z,101503.84
2022-10-29T19:51:27.905Z,101515.66
2022-10-29T19:53:58.032Z,101511.72
2022-10-29T19:56:25.899Z,101508.00
2022-10-29T19:58:54.084Z,101507.25
2022-10-29T20:01:25.204Z,101504.63
2022-10-29T20:03:53.172Z,101500.97
2022-10-29T20:06:21.468Z,101515.16
2022-10-29T20:08:49.084Z,101513.28
2022-10-29T20:11:17.189Z,101511.19
2022-10-29T20:13:44.701Z,101510.66
2022-10-29T20:16:17.037Z,101510.16
2022-10-29T20:18:45.744Z,101506.22
2022-10-29T20:21:13.878Z,101513.03
2022-10-29T20:23:41.752Z,101518.28
2022-10-29T20:26:10.157Z,101525.13
2022-10-29T20:28:37.795Z,101515.37
2022-10-29T20:31:17.951Z,101519.09
2022-10-29T20:33:50.456Z,101527.50
2022-10-29T20:36:21.289Z,101530.12
2022-10-29T20:38:51.269Z,101520.91
2022-10-29T20:41:19.924Z,101527.25
2022-10-29T20:43:56.321Z,101528.53
2022-10-29T20:46:25.116Z,101523.53
2022-10-29T20:48:53.161Z,101525.41
2022-10-29T20:51:22.869Z,101514.87
2022-10-29T20:53:52.309Z,101509.38
2022-10-29T20:56:21.758Z,101504.13
2022-10-29T20:58:49.418Z,101507.25
2022-10-29T21:01:19.229Z,101500.72
2022-10-29T21:03:49.985Z,101499.91
2022-10-29T21:06:19.128Z,101497.53
2022-10-29T21:08:47.842Z,101502.78
2022-10-29T21:11:17.152Z,101499.62
2022-10-29T21:13:45.656Z,101499.38
2022-10-29T21:16:29.100Z,101501.75
2022-10-29T21:18:59.842Z,101499.38
2022-10-29T21:21:29.267Z,101488.88
2022-10-29T21:23:57.547Z,101493.09
2022-10-29T21:26:27.137Z,101491.78
2022-10-29T21:28:55.134Z,101488.88
2022-10-29T21:31:23.823Z,101484.13
2022-10-29T21:33:52.726Z,101480.19
2022-10-29T21:36:21.345Z,101488.88
2022-10-29T21:38:49.613Z,101490.97
2022-10-29T21:41:18.496Z,101490.97
2022-10-29T21:43:46.119Z,101491.50
2022-10-29T21:46:14.090Z,101492.56
2022-10-29T21:48:41.800Z,101490.47
2022-10-29T21:51:14.786Z,101484.41
2022-10-29T21:53:44.305Z,101491.22
2022-10-29T21:56:15.459Z,101495.72
2022-10-29T21:58:43.751Z,101497.81
2022-10-29T22:01:14.175Z,101489.94
2022-10-29T22:03:43.896Z,101490.47
2022-10-29T22:06:19.586Z,101482.81
2022-10-29T22:08:52.094Z,101489.81
2022-10-29T22:11:19.655Z,101476.50
2022-10-29T22:13:47.589Z,101471.53
2022-10-29T22:16:15.198Z,101470.78
2022-10-29T22:18:42.930Z,101473.13
2022-10-29T22:21:13.901Z,101470.50
2022-10-29T22:24:01.722Z,101468.94
2022-10-29T22:26:30.222Z,101471.81
2022-10-29T22:28:57.884Z,101471.00
2022-10-29T22:31:25.899Z,101471.03
2022-10-29T22:33:53.898Z,101471.56
2022-10-29T22:36:23.805Z,101465.25
2022-10-29T22:38:59.548Z,101472.34
2022-10-29T22:41:28.243Z,101469.19
2022-10-29T22:43:59.375Z,101478.66
2022-10-29T22:46:28.641Z,101470.50
2022-10-29T22:48:56.993Z,101468.16
2022-10-29T22:51:27.563Z,101468.16
2022-10-29T22:53:55.627Z,101466.81
2022-10-29T22:56:26.092Z,101456.81
2022-10-29T22:58:54.352Z,101455.81
2022-10-29T23:01:27.561Z,101449.78
2022-10-29T23:03:55.460Z,101448.97
2022-10-29T23:06:23.739Z,101451.31
2022-10-29T23:08:55.682Z,101450.50
2022-10-29T23:11:26.047Z,101444.69
2022-10-29T23:13:56.148Z,101449.50
2022-10-29T23:16:25.713Z,101442.66
2022-10-29T23:19:03.597Z,101445.81
2022-10-29T23:21:31.799Z,101442.66
2022-10-29T23:23:59.503Z,101446.87
2022-10-29T23:26:27.709Z,101433.50
2022-10-29T23:28:55.745Z,101437.78
2022-10-29T23:31:28.205Z,101429.66
2022-10-29T23:33:57.985Z,101428.16
2022-10-29T23:36:27.145Z,101437.41
2022-10-29T23:38:59.547Z,101434.75
2022-10-29T23:41:30.039Z,101437.66
2022-10-29T23:43:58.403Z,101431.88
2022-10-29T23:46:26.043Z,101430.56
2022-10-29T23:48:54.189Z,101428.72
2022-10-29T23:51:21.834Z,101420.84
2022-10-29T23:53:51.815Z,101425.78
2022-10-29T23:56:22.752Z,101430.00
2022-10-29T23:58:50.290Z,101430.78
